createdAt,value
2022-12-24T06:43:03.337Z,13.67
2022-12-24T06:46:26.516Z,13.79
2022-12-24T06:49:48.325Z,13.76
2022-12-24T06:53:10.764Z,13.57
2022-12-24T06:56:32.679Z,13.56
2022-12-24T06:59:54.579Z,13.64
2022-12-24T07:03:16.518Z,13.79
2022-12-24T07:06:38.544Z,13.76
2022-12-24T07:10:00.423Z,13.85
2022-12-24T07:13:23.312Z,13.84
2022-12-24T07:16:50.473Z,13.71
2022-12-24T07:20:20.623Z,13.65
2022-12-24T07:23:42.648Z,13.83
2022-12-24T07:27:12.354Z,13.78
2022-12-24T07:30:34.199Z,13.67
2022-12-24T07:33:56.024Z,13.69
2022-12-24T07:37:17.879Z,13.70
2022-12-24T07:40:39.800Z,13.75
2022-12-24T07:44:02.862Z,13.63
2022-12-24T07:47:24.774Z,13.49
2022-12-24T07:50:49.274Z,13.52
2022-12-24T07:54:11.410Z,13.64
2022-12-24T07:57:33.373Z,13.66
2022-12-24T08:01:03.785Z,13.51
2022-12-24T08:04:27.676Z,13.54
2022-12-24T08:07:49.446Z,13.51
2022-12-24T08:11:13.854Z,13.76
2022-12-24T08:14:35.774Z,13.95
2022-12-24T08:17:57.732Z,13.76
2022-12-24T08:21:19.565Z,13.98
2022-12-24T08:24:41.545Z,13.84
2022-12-24T08:28:04.415Z,13.85
2022-12-24T08:31:26.266Z,13.92
2022-12-24T08:34:49.165Z,13.78
2022-12-24T08:38:11.028Z,13.82
2022-12-24T08:41:37.832Z,13.76
2022-12-24T08:45:00.403Z,13.86
2022-12-24T08:48:22.407Z,13.99
2022-12-24T08:51:52.081Z,14.28
2022-12-24T08:55:18.134Z,14.30
2022-12-24T08:58:40.055Z,14.25
2022-12-24T09:02:02.565Z,14.26
2022-12-24T09:05:31.833Z,14.30
2022-12-24T09:09:07.632Z,14.47
2022-12-24T09:12:29.568Z,14.46
2022-12-24T09:15:55.693Z,14.41
2022-12-24T09:19:17.667Z,14.76
2022-12-24T09:22:40.761Z,14.68
2022-12-24T09:26:15.126Z,14.87
2022-12-24T09:29:40.473Z,14.97
2022-12-24T09:33:04.409Z,14.98
2022-12-24T09:36:37.133Z,14.92
2022-12-24T09:39:59.040Z,14.63
2022-12-24T09:43:34.041Z,14.68
2022-12-24T09:47:01.220Z,14.58
2022-12-24T09:50:59.059Z,14.69
2022-12-24T09:54:47.728Z,14.62
2022-12-24T09:58:31.320Z,14.72
2022-12-24T10:01:55.937Z,14.52
2022-12-24T10:05:29.383Z,14.52
2022-12-24T10:09:13.370Z,14.65
2022-12-24T10:13:08.012Z,15.06
2022-12-24T10:17:10.128Z,15.16
2022-12-24T10:20:57.002Z,15.33
2022-12-24T10:24:32.449Z,15.19
2022-12-24T10:28:16.845Z,15.25
2022-12-24T10:31:56.854Z,15.41
2022-12-24T10:35:44.977Z,15.47
2022-12-24T10:39:25.661Z,15.60
2022-12-24T10:42:55.584Z,15.70
2022-12-24T10:46:36.312Z,15.68
2022-12-24T10:50:06.755Z,15.72
2022-12-24T10:53:40.138Z,15.46
2022-12-24T10:57:03.250Z,15.29
2022-12-24T11:00:33.562Z,15.40
2022-12-24T11:04:03.560Z,15.51
2022-12-24T11:07:32.024Z,15.30
2022-12-24T11:11:20.311Z,15.18
2022-12-24T11:14:59.347Z,15.07
2022-12-24T11:19:02.704Z,14.97
2022-12-24T11:22:32.606Z,14.87
2022-12-24T11:25:57.021Z,14.90
2022-12-24T11:29:27.067Z,14.79
2022-12-24T11:33:18.863Z,14.91
2022-12-24T11:36:40.759Z,14.48
2022-12-24T11:40:45.490Z,14.57
2022-12-24T11:44:12.455Z,14.46
2022-12-24T11:47:41.586Z,14.36
2022-12-24T11:51:18.778Z,14.33
2022-12-24T11:55:18.699Z,14.51
2022-12-24T11:58:53.506Z,14.83
2022-12-24T12:02:42.680Z,15.05
2022-12-24T12:06:23.782Z,14.95
2022-12-24T12:09:58.909Z,14.95
2022-12-24T12:13:33.937Z,14.87
2022-12-24T12:17:43.610Z,14.67
2022-12-24T12:21:14.202Z,15.13
2022-12-24T12:24:52.736Z,15.15
2022-12-24T12:28:44.319Z,15.05
2022-12-24T12:32:27.629Z,15.28
2022-12-24T12:35:54.871Z,15.28
2022-12-24T12:39:31.452Z,15.22
2022-12-24T12:43:14.461Z,15.10
2022-12-24T12:47:27.030Z,14.85
2022-12-24T12:51:26.938Z,15.09
2022-12-24T12:55:29.468Z,15.24
2022-12-24T12:59:08.073Z,15.43
2022-12-24T13:03:22.939Z,15.24
2022-12-24T13:07:17.536Z,14.86
2022-12-24T13:11:33.692Z,14.82
2022-12-24T13:15:14.232Z,14.71
2022-12-24T13:19:09.540Z,14.70
2022-12-24T13:22:37.531Z,14.63
2022-12-24T13:26:14.136Z,14.41
2022-12-24T13:29:53.477Z,14.33
2022-12-24T13:33:38.321Z,14.11
2022-12-24T13:37:04.508Z,13.80
2022-12-24T13:40:28.370Z,13.90
2022-12-24T13:44:20.504Z,13.97
2022-12-24T13:47:42.640Z,14.02
2022-12-24T13:51:26.107Z,13.82
2022-12-24T13:55:19.566Z,14.20
2022-12-24T13:58:50.266Z,14.45
2022-12-24T14:02:22.647Z,14.47
2022-12-24T14:05:44.561Z,14.39
2022-12-24T14:09:23.141Z,14.27
2022-12-24T14:12:52.911Z,14.36
2022-12-24T14:16:30.589Z,14.21
2022-12-24T14:20:02.314Z,14.21
2022-12-24T14:23:55.186Z,14.40
2022-12-24T14:27:50.503Z,14.48
2022-12-24T14:31:19.426Z,14.45
2022-12-24T14:35:15.023Z,14.00
2022-12-24T14:38:53.623Z,14.32
2022-12-24T14:43:09.193Z,14.32
2022-12-24T14:46:50.773Z,14.15
2022-12-24T14:50:39.603Z,14.03
2022-12-24T14:54:26.086Z,14.20
2022-12-24T14:58:26.885Z,14.12
2022-12-24T15:01:50.816Z,14.00
2022-12-24T15:05:19.475Z,13.95
2022-12-24T15:08:49.785Z,13.95
2022-12-24T15:12:13.467Z,13.96
2022-12-24T15:15:52.035Z,13.82
2022-12-24T15:19:36.005Z,13.87
2022-12-24T15:22:59.386Z,13.82
2022-12-24T15:26:24.923Z,13.99
2022-12-24T15:30:15.218Z,13.84
2022-12-24T15:33:38.159Z,13.77
2022-12-24T15:37:16.745Z,13.89
2022-12-24T15:40:38.655Z,13.81
2022-12-24T15:44:04.158Z,13.27
2022-12-24T15:47:52.781Z,13.81
2022-12-24T15:51:37.976Z,13.87
2022-12-24T15:55:03.076Z,13.84
2022-12-24T15:58:30.995Z,13.75
2022-12-24T16:01:55.386Z,13.71
2022-12-24T16:05:36.130Z,13.70
2022-12-24T16:08:58.683Z,13.72
2022-12-24T16:12:24.982Z,13.66
2022-12-24T16:15:56.451Z,13.63
2022-12-24T16:19:22.893Z,13.69
2022-12-24T16:22:47.705Z,13.68
2022-12-24T16:26:10.635Z,13.44
2022-12-24T16:29:32.513Z,13.61
2022-12-24T16:32:54.347Z,13.61
2022-12-24T16:36:16.157Z,13.65
2022-12-24T16:39:38.069Z,13.59
2022-12-24T16:43:18.395Z,13.60
2022-12-24T16:46:40.262Z,13.63
2022-12-24T16:50:06.831Z,13.55
2022-12-24T16:53:28.648Z,13.46
2022-12-24T16:56:50.817Z,13.53
2022-12-24T17:00:28.844Z,13.57
2022-12-24T17:03:50.794Z,13.53
2022-12-24T17:07:16.246Z,13.46
2022-12-24T17:10:41.049Z,13.51
2022-12-24T17:14:08.974Z,13.46
2022-12-24T17:17:32.873Z,13.55
2022-12-24T17:21:00.762Z,13.53
2022-12-24T17:24:22.602Z,13.38
2022-12-24T17:27:44.503Z,13.47
2022-12-24T17:31:10.002Z,13.51
2022-12-24T17:34:32.009Z,13.46
2022-12-24T17:37:53.845Z,13.55
2022-12-24T17:41:20.371Z,13.56
2022-12-24T17:44:42.204Z,13.58
2022-12-24T17:48:22.201Z,13.44
2022-12-24T17:51:45.899Z,13.51
2022-12-24T17:55:09.101Z,13.39
2022-12-24T17:58:31.348Z,13.84
2022-12-24T18:01:53.295Z,13.77
2022-12-24T18:05:25.479Z,13.68
2022-12-24T18:08:47.991Z,13.66
2022-12-24T18:12:10.368Z,13.53
2022-12-24T18:15:40.069Z,13.60
2022-12-24T18:19:04.191Z,13.58
2022-12-24T18:22:33.111Z,13.55
2022-12-24T18:26:12.557Z,13.63
2022-12-24T18:29:35.117Z,13.62
2022-12-24T18:32:57.004Z,13.55
2022-12-24T18:36:20.662Z,13.53
2022-12-24T18:39:44.295Z,13.65
2022-12-24T18:43:10.190Z,13.63
2022-12-24T18:46:34.064Z,13.60
2022-12-24T18:50:01.138Z,13.68
2022-12-24T18:53:23.563Z,13.68
2022-12-24T18:56:45.405Z,13.49
2022-12-24T19:00:26.145Z,13.42
2022-12-24T19:03:49.216Z,13.51
2022-12-24T19:07:11.134Z,13.47
2022-12-24T19:10:38.325Z,13.52
2022-12-24T19:14:01.940Z,13.51
2022-12-24T19:17:23.885Z,13.56
2022-12-24T19:20:54.020Z,13.60
2022-12-24T19:24:15.870Z,13.56
2022-12-24T19:27:37.733Z,13.58
2022-12-24T19:31:05.833Z,13.62
2022-12-24T19:34:28.462Z,13.57
2022-12-24T19:37:50.337Z,13.64
2022-12-24T19:41:19.661Z,13.68
2022-12-24T19:44:43.573Z,13.64
2022-12-24T19:48:05.936Z,13.65
2022-12-24T19:51:29.413Z,13.58
2022-12-24T19:54:53.422Z,13.49
2022-12-24T19:58:15.339Z,13.30
2022-12-24T20:01:37.489Z,13.37
2022-12-24T20:05:06.715Z,13.43
2022-12-24T20:08:30.498Z,13.30
2022-12-24T20:11:52.421Z,13.31
2022-12-24T20:15:14.315Z,13.12
2022-12-24T20:19:08.287Z,13.18
2022-12-24T20:22:30.131Z,13.21
2022-12-24T20:26:02.105Z,13.12
2022-12-24T20:29:24.064Z,13.06
2022-12-24T20:32:58.306Z,13.11
2022-12-24T20:36:23.868Z,13.13
2022-12-24T20:39:45.765Z,12.96
2022-12-24T20:43:13.881Z,12.95
2022-12-24T20:46:49.118Z,12.84
2022-12-24T20:50:11.084Z,12.95
2022-12-24T20:53:33.343Z,12.95
2022-12-24T20:57:01.125Z,12.88
2022-12-24T21:00:30.395Z,12.98
2022-12-24T21:03:54.611Z,13.10
2022-12-24T21:07:20.613Z,13.08
2022-12-24T21:10:46.848Z,12.99
2022-12-24T21:14:09.822Z,13.02
2022-12-24T21:17:31.763Z,13.08
2022-12-24T21:20:55.252Z,13.04
2022-12-24T21:24:19.455Z,13.11
2022-12-24T21:27:56.764Z,13.12
2022-12-24T21:31:18.917Z,13.09
2022-12-24T21:34:42.812Z,13.08
2022-12-24T21:38:15.388Z,13.19
2022-12-24T21:41:37.308Z,13.19
2022-12-24T21:44:59.633Z,13.03
2022-12-24T21:48:50.991Z,12.97
2022-12-24T21:52:12.928Z,13.05
2022-12-24T21:55:36.850Z,13.10
2022-12-24T21:59:01.846Z,12.96
2022-12-24T22:02:28.897Z,13.01
2022-12-24T22:05:59.249Z,13.10
2022-12-24T22:09:53.084Z,13.09
2022-12-24T22:13:20.042Z,12.98
2022-12-24T22:16:44.258Z,13.07
2022-12-24T22:20:09.351Z,12.83
2022-12-24T22:23:40.457Z,12.81
2022-12-24T22:27:15.395Z,12.77
2022-12-24T22:30:47.424Z,12.78
2022-12-24T22:34:45.392Z,12.68
2022-12-24T22:38:12.833Z,12.51
2022-12-24T22:41:54.986Z,12.71
2022-12-24T22:45:23.114Z,12.69
2022-12-24T22:49:02.585Z,12.67
2022-12-24T22:52:24.824Z,12.83
2022-12-24T22:56:15.551Z,12.77
2022-12-24T22:59:39.096Z,12.88
2022-12-24T23:03:01.059Z,12.84
2022-12-24T23:06:22.969Z,12.86
2022-12-24T23:09:44.805Z,12.89
2022-12-24T23:13:26.223Z,12.83
2022-12-24T23:16:48.157Z,12.83
2022-12-24T23:20:22.497Z,12.82
2022-12-24T23:23:52.579Z,12.82
2022-12-24T23:27:14.525Z,12.83
2022-12-24T23:30:37.562Z,12.49
2022-12-24T23:33:59.553Z,12.66
2022-12-24T23:37:29.573Z,12.76
2022-12-24T23:41:11.480Z,12.73
2022-12-24T23:44:33.341Z,12.65
2022-12-24T23:47:55.143Z,12.63
2022-12-24T23:51:23.381Z,12.67
2022-12-24T23:54:45.566Z,12.51
2022-12-24T23:58:15.214Z,12.61
